sensor_id;sensor_type;location;lat;lon;timestamp;pressure;altitude;pressure_sealevel;temperature;humidity
20710;BME280;10516;51.518;9.864;2023-05-02T00:00:37;98830.00;;;13.08;65.34
20710;BME280;10516;51.518;9.864;2023-05-02T00:03:02;98833.22;;;13.10;65.29
20710;BME280;10516;51.518;9.864;2023-05-02T00:05:28;98827.31;;;13.08;65.44
20710;BME280;10516;51.518;9.864;2023-05-02T00:07:53;98829.38;;;12.91;66.06
20710;BME280;10516;51.518;9.864;2023-05-02T00:10:19;98828.53;;;12.85;66.25
20710;BME280;10516;51.518;9.864;2023-05-02T00:12:44;98832.88;;;12.29;70.45
20710;BME280;10516;51.518;9.864;2023-05-02T00:15:09;98827.25;;;11.89;72.25
20710;BME280;10516;51.518;9.864;2023-05-02T00:17:35;98828.41;;;11.66;73.42
20710;BME280;10516;51.518;9.864;2023-05-02T00:20:00;98826.78;;;11.65;73.60
20710;BME280;10516;51.518;9.864;2023-05-02T00:22:28;98820.56;;;12.33;68.46
20710;BME280;10516;51.518;9.864;2023-05-02T00:24:56;98820.94;;;12.57;67.34
20710;BME280;10516;51.518;9.864;2023-05-02T00:27:22;98824.88;;;12.39;69.37
20710;BME280;10516;51.518;9.864;2023-05-02T00:29:48;98829.88;;;12.21;69.82
20710;BME280;10516;51.518;9.864;2023-05-02T00:32:13;98824.72;;;12.61;67.37
20710;BME280;10516;51.518;9.864;2023-05-02T00:34:39;98831.19;;;12.70;66.96
20710;BME280;10516;51.518;9.864;2023-05-02T00:37:04;98827.97;;;12.68;66.51
20710;BME280;10516;51.518;9.864;2023-05-02T00:39:29;98831.75;;;12.82;66.31
20710;BME280;10516;51.518;9.864;2023-05-02T00:41:57;98834.09;;;12.63;67.75
20710;BME280;10516;51.518;9.864;2023-05-02T00:44:23;98826.66;;;12.80;66.41
20710;BME280;10516;51.518;9.864;2023-05-02T00:46:48;98836.50;;;12.60;67.39
20710;BME280;10516;51.518;9.864;2023-05-02T00:49:13;98826.09;;;12.68;66.72
20710;BME280;10516;51.518;9.864;2023-05-02T00:51:39;98833.59;;;12.76;66.39
20710;BME280;10516;51.518;9.864;2023-05-02T00:54:04;98831.75;;;12.87;66.09
20710;BME280;10516;51.518;9.864;2023-05-02T00:56:29;98835.53;;;12.86;65.99
20710;BME280;10516;51.518;9.864;2023-05-02T00:58:55;98833.34;;;12.78;66.76
20710;BME280;10516;51.518;9.864;2023-05-02T01:06:30;98826.59;;;12.65;67.67
20710;BME280;10516;51.518;9.864;2023-05-02T01:13:56;98845.25;;;12.45;68.35
20710;BME280;10516;51.518;9.864;2023-05-02T01:16:23;98847.41;;;12.48;67.69
20710;BME280;10516;51.518;9.864;2023-05-02T01:18:49;98839.84;;;12.35;68.62
20710;BME280;10516;51.518;9.864;2023-05-02T01:21:15;98845.34;;;12.14;69.32
20710;BME280;10516;51.518;9.864;2023-05-02T01:31:02;98853.03;;;12.52;67.08
20710;BME280;10516;51.518;9.864;2023-05-02T01:33:28;98855.44;;;12.48;67.17
20710;BME280;10516;51.518;9.864;2023-05-02T01:35:55;98853.47;;;12.29;68.99
20710;BME280;10516;51.518;9.864;2023-05-02T01:38:21;98849.25;;;12.43;67.50
20710;BME280;10516;51.518;9.864;2023-05-02T01:40:47;98856.06;;;12.14;69.36
20710;BME280;10516;51.518;9.864;2023-05-02T01:43:14;98858.31;;;12.32;68.16
20710;BME280;10516;51.518;9.864;2023-05-02T01:45:41;98856.34;;;12.17;68.90
20710;BME280;10516;51.518;9.864;2023-05-02T01:48:07;98856.19;;;12.39;68.15
20710;BME280;10516;51.518;9.864;2023-05-02T01:50:34;98855.41;;;12.43;67.74
20710;BME280;10516;51.518;9.864;2023-05-02T01:53:00;98853.97;;;12.26;68.49
20710;BME280;10516;51.518;9.864;2023-05-02T01:55:27;98852.97;;;12.32;68.50
20710;BME280;10516;51.518;9.864;2023-05-02T01:57:53;98843.31;;;11.89;71.70
20710;BME280;10516;51.518;9.864;2023-05-02T02:00:18;98849.25;;;12.43;67.63
20710;BME280;10516;51.518;9.864;2023-05-02T02:02:45;98849.63;;;12.15;69.26
20710;BME280;10516;51.518;9.864;2023-05-02T02:05:11;98852.97;;;12.37;68.35
20710;BME280;10516;51.518;9.864;2023-05-02T02:07:38;98856.00;;;12.50;67.43
20710;BME280;10516;51.518;9.864;2023-05-02T02:10:03;98858.34;;;12.42;68.00
20710;BME280;10516;51.518;9.864;2023-05-02T02:12:30;98857.84;;;12.45;67.55
20710;BME280;10516;51.518;9.864;2023-05-02T02:15:02;98855.19;;;12.08;69.74
20710;BME280;10516;51.518;9.864;2023-05-02T02:17:38;98856.19;;;12.34;68.33
20710;BME280;10516;51.518;9.864;2023-05-02T02:20:04;98859.88;;;12.28;68.58
20710;BME280;10516;51.518;9.864;2023-05-02T02:22:30;98852.88;;;12.22;68.85
20710;BME280;10516;51.518;9.864;2023-05-02T02:24:58;98870.34;;;12.34;68.72
20710;BME280;10516;51.518;9.864;2023-05-02T02:27:23;98870.91;;;12.36;68.41
20710;BME280;10516;51.518;9.864;2023-05-02T02:29:49;98877.81;;;12.27;68.95
20710;BME280;10516;51.518;9.864;2023-05-02T02:32:14;98874.81;;;12.19;68.97
20710;BME280;10516;51.518;9.864;2023-05-02T02:34:40;98881.31;;;12.33;68.16
20710;BME280;10516;51.518;9.864;2023-05-02T02:39:54;98886.00;;;12.11;69.62
20710;BME280;10516;51.518;9.864;2023-05-02T02:42:27;98889.84;;;11.88;71.38
20710;BME280;10516;51.518;9.864;2023-05-02T02:47:49;98901.25;;;11.78;71.33
20710;BME280;10516;51.518;9.864;2023-05-02T02:55:15;98897.69;;;11.68;72.06
20710;BME280;10516;51.518;9.864;2023-05-02T03:00:15;98899.25;;;11.95;71.09
20710;BME280;10516;51.518;9.864;2023-05-02T03:02:41;98913.94;;;11.93;71.28
20710;BME280;10516;51.518;9.864;2023-05-02T03:05:07;98916.25;;;11.58;73.55
20710;BME280;10516;51.518;9.864;2023-05-02T03:07:33;98907.88;;;12.02;70.29
20710;BME280;10516;51.518;9.864;2023-05-02T03:10:01;98918.88;;;11.74;71.49
20710;BME280;10516;51.518;9.864;2023-05-02T03:12:27;98919.28;;;11.93;71.08
20710;BME280;10516;51.518;9.864;2023-05-02T03:14:52;98919.19;;;12.10;70.06
20710;BME280;10516;51.518;9.864;2023-05-02T03:17:22;98920.22;;;12.09;69.83
20710;BME280;10516;51.518;9.864;2023-05-02T03:19:47;98923.94;;;12.02;70.29
20710;BME280;10516;51.518;9.864;2023-05-02T03:22:12;98923.31;;;11.95;70.60
20710;BME280;10516;51.518;9.864;2023-05-02T03:24:37;98928.13;;;11.93;70.59
20710;BME280;10516;51.518;9.864;2023-05-02T03:27:03;98930.75;;;11.88;71.04
20710;BME280;10516;51.518;9.864;2023-05-02T03:29:28;98937.19;;;11.87;71.12
20710;BME280;10516;51.518;9.864;2023-05-02T03:31:53;98931.72;;;11.77;72.15
20710;BME280;10516;51.518;9.864;2023-05-02T03:34:19;98934.03;;;11.95;70.66
20710;BME280;10516;51.518;9.864;2023-05-02T03:36:46;98935.56;;;11.86;71.54
20710;BME280;10516;51.518;9.864;2023-05-02T03:39:11;98943.19;;;12.04;70.69
20710;BME280;10516;51.518;9.864;2023-05-02T03:41:36;98948.16;;;11.91;71.29
20710;BME280;10516;51.518;9.864;2023-05-02T03:44:01;98941.28;;;12.00;70.80
20710;BME280;10516;51.518;9.864;2023-05-02T03:46:27;98938.34;;;12.01;70.72
20710;BME280;10516;51.518;9.864;2023-05-02T03:48:52;98942.69;;;12.08;70.25
20710;BME280;10516;51.518;9.864;2023-05-02T03:51:18;98945.88;;;12.04;70.16
20710;BME280;10516;51.518;9.864;2023-05-02T03:53:43;98949.25;;;11.95;71.14
20710;BME280;10516;51.518;9.864;2023-05-02T03:56:08;98957.59;;;11.98;70.95
20710;BME280;10516;51.518;9.864;2023-05-02T03:58:34;98949.25;;;11.90;71.55
20710;BME280;10516;51.518;9.864;2023-05-02T04:01:02;98951.94;;;11.95;71.12
20710;BME280;10516;51.518;9.864;2023-05-02T04:03:27;98964.53;;;11.94;70.88
20710;BME280;10516;51.518;9.864;2023-05-02T04:05:53;98958.03;;;11.90;71.11
20710;BME280;10516;51.518;9.864;2023-05-02T04:08:18;98967.22;;;11.68;72.50
20710;BME280;10516;51.518;9.864;2023-05-02T04:10:43;98963.91;;;11.87;71.35
20710;BME280;10516;51.518;9.864;2023-05-02T04:13:08;98983.19;;;11.89;71.32
20710;BME280;10516;51.518;9.864;2023-05-02T04:15:34;98972.69;;;11.83;72.07
20710;BME280;10516;51.518;9.864;2023-05-02T04:17:59;98983.47;;;11.88;71.05
20710;BME280;10516;51.518;9.864;2023-05-02T04:20:24;98985.88;;;11.89;71.31
20710;BME280;10516;51.518;9.864;2023-05-02T04:22:50;98989.31;;;11.85;71.54
20710;BME280;10516;51.518;9.864;2023-05-02T04:25:15;98997.63;;;11.88;71.18
20710;BME280;10516;51.518;9.864;2023-05-02T04:27:40;98999.78;;;11.91;71.40
20710;BME280;10516;51.518;9.864;2023-05-02T04:30:06;99008.38;;;11.93;71.09
20710;BME280;10516;51.518;9.864;2023-05-02T04:32:31;99007.66;;;11.76;71.81
20710;BME280;10516;51.518;9.864;2023-05-02T04:34:56;99012.88;;;11.88;72.08
20710;BME280;10516;51.518;9.864;2023-05-02T04:37:22;99005.34;;;12.12;70.83
20710;BME280;10516;51.518;9.864;2023-05-02T04:39:47;99018.31;;;11.98;70.75
20710;BME280;10516;51.518;9.864;2023-05-02T04:42:12;99017.06;;;12.06;70.71
20710;BME280;10516;51.518;9.864;2023-05-02T04:44:37;99021.88;;;12.09;70.45
20710;BME280;10516;51.518;9.864;2023-05-02T04:47:03;99022.25;;;11.90;71.22
20710;BME280;10516;51.518;9.864;2023-05-02T04:49:28;99023.53;;;11.61;72.87
20710;BME280;10516;51.518;9.864;2023-05-02T04:51:54;99035.59;;;11.85;72.34
20710;BME280;10516;51.518;9.864;2023-05-02T04:54:19;99044.66;;;11.63;74.21
20710;BME280;10516;51.518;9.864;2023-05-02T04:56:44;99054.84;;;11.87;73.41
20710;BME280;10516;51.518;9.864;2023-05-02T04:59:10;99050.91;;;11.68;74.43
20710;BME280;10516;51.518;9.864;2023-05-02T05:01:35;99063.06;;;11.81;73.65
20710;BME280;10516;51.518;9.864;2023-05-02T05:04:01;99066.50;;;11.76;74.14
20710;BME280;10516;51.518;9.864;2023-05-02T05:06:26;99069.53;;;11.85;73.57
20710;BME280;10516;51.518;9.864;2023-05-02T05:08:52;99068.97;;;11.83;74.04
20710;BME280;10516;51.518;9.864;2023-05-02T05:11:17;99071.66;;;11.83;73.81
20710;BME280;10516;51.518;9.864;2023-05-02T05:13:42;99078.38;;;11.85;74.46
20710;BME280;10516;51.518;9.864;2023-05-02T05:16:08;99075.44;;;11.87;74.47
20710;BME280;10516;51.518;9.864;2023-05-02T05:18:33;99080.31;;;11.90;73.95
20710;BME280;10516;51.518;9.864;2023-05-02T05:21:05;99078.47;;;11.95;73.99
20710;BME280;10516;51.518;9.864;2023-05-02T05:23:30;99089.09;;;11.90;74.15
20710;BME280;10516;51.518;9.864;2023-05-02T05:25:55;99087.81;;;11.93;73.92
20710;BME280;10516;51.518;9.864;2023-05-02T05:28:20;99086.09;;;12.09;73.88
20710;BME280;10516;51.518;9.864;2023-05-02T05:30:46;99089.50;;;11.99;74.01
20710;BME280;10516;51.518;9.864;2023-05-02T05:33:11;99095.13;;;12.02;74.17
20710;BME280;10516;51.518;9.864;2023-05-02T05:35:37;99092.72;;;12.01;73.92
20710;BME280;10516;51.518;9.864;2023-05-02T05:38:02;99099.88;;;11.95;74.30
20710;BME280;10516;51.518;9.864;2023-05-02T05:40:27;99097.31;;;12.06;74.32
20710;BME280;10516;51.518;9.864;2023-05-02T05:42:52;99096.63;;;11.93;74.71
20710;BME280;10516;51.518;9.864;2023-05-02T05:45:18;99105.78;;;11.97;74.69
20710;BME280;10516;51.518;9.864;2023-05-02T05:47:43;99101.31;;;12.03;74.67
20710;BME280;10516;51.518;9.864;2023-05-02T05:50:09;99102.94;;;11.82;75.46
20710;BME280;10516;51.518;9.864;2023-05-02T05:52:35;99112.44;;;11.95;74.96
20710;BME280;10516;51.518;9.864;2023-05-02T05:55:01;99116.53;;;12.02;74.58
20710;BME280;10516;51.518;9.864;2023-05-02T05:57:28;99120.06;;;11.81;76.16
20710;BME280;10516;51.518;9.864;2023-05-02T05:59:53;99118.50;;;11.85;75.27
20710;BME280;10516;51.518;9.864;2023-05-02T06:02:18;99122.72;;;11.81;75.89
20710;BME280;10516;51.518;9.864;2023-05-02T06:04:43;99125.50;;;11.91;75.24
20710;BME280;10516;51.518;9.864;2023-05-02T06:07:10;99126.63;;;11.74;76.24
20710;BME280;10516;51.518;9.864;2023-05-02T06:09:35;99128.31;;;11.80;76.18
20710;BME280;10516;51.518;9.864;2023-05-02T06:12:00;99129.41;;;11.84;75.72
20710;BME280;10516;51.518;9.864;2023-05-02T06:14:26;99129.59;;;11.77;76.16
20710;BME280;10516;51.518;9.864;2023-05-02T06:16:51;99125.66;;;11.63;76.50
20710;BME280;10516;51.518;9.864;2023-05-02T06:19:17;99141.19;;;11.83;75.95
20710;BME280;10516;51.518;9.864;2023-05-02T06:21:42;99143.13;;;11.87;75.83
20710;BME280;10516;51.518;9.864;2023-05-02T06:24:07;99145.47;;;11.84;75.66
20710;BME280;10516;51.518;9.864;2023-05-02T06:26:32;99149.75;;;12.07;74.96
20710;BME280;10516;51.518;9.864;2023-05-02T06:28:58;99154.69;;;11.93;75.57
20710;BME280;10516;51.518;9.864;2023-05-02T06:31:23;99153.06;;;11.92;76.34
20710;BME280;10516;51.518;9.864;2023-05-02T06:33:48;99157.31;;;11.88;76.09
20710;BME280;10516;51.518;9.864;2023-05-02T06:36:13;99165.00;;;11.84;76.54
20710;BME280;10516;51.518;9.864;2023-05-02T06:38:39;99172.41;;;11.77;76.35
20710;BME280;10516;51.518;9.864;2023-05-02T06:41:05;99161.78;;;11.82;76.05
20710;BME280;10516;51.518;9.864;2023-05-02T06:43:30;99174.91;;;12.06;74.37
20710;BME280;10516;51.518;9.864;2023-05-02T06:45:56;99176.81;;;12.10;74.68
20710;BME280;10516;51.518;9.864;2023-05-02T06:48:22;99183.91;;;12.21;74.75
20710;BME280;10516;51.518;9.864;2023-05-02T06:50:48;99186.34;;;12.23;74.49
20710;BME280;10516;51.518;9.864;2023-05-02T06:53:15;99190.75;;;11.90;76.73
20710;BME280;10516;51.518;9.864;2023-05-02T06:55:40;99189.44;;;12.15;74.72
20710;BME280;10516;51.518;9.864;2023-05-02T06:58:06;99195.88;;;12.14;75.10
20710;BME280;10516;51.518;9.864;2023-05-02T07:00:31;99202.41;;;12.23;75.07
20710;BME280;10516;51.518;9.864;2023-05-02T07:02:56;99209.34;;;11.80;76.92
20710;BME280;10516;51.518;9.864;2023-05-02T07:05:22;99210.44;;;12.01;77.32
20710;BME280;10516;51.518;9.864;2023-05-02T07:07:47;99222.41;;;11.77;78.06
20710;BME280;10516;51.518;9.864;2023-05-02T07:10:12;99223.56;;;12.02;76.67
20710;BME280;10516;51.518;9.864;2023-05-02T07:12:38;99217.72;;;12.06;75.82
20710;BME280;10516;51.518;9.864;2023-05-02T07:15:06;99221.38;;;11.99;76.67
20710;BME280;10516;51.518;9.864;2023-05-02T07:17:32;99223.63;;;11.86;77.03
20710;BME280;10516;51.518;9.864;2023-05-02T07:19:57;99231.09;;;11.67;79.42
20710;BME280;10516;51.518;9.864;2023-05-02T07:22:22;99234.50;;;11.79;77.34
20710;BME280;10516;51.518;9.864;2023-05-02T07:24:48;99236.19;;;11.85;77.02
20710;BME280;10516;51.518;9.864;2023-05-02T07:27:20;99233.84;;;11.72;78.43
20710;BME280;10516;51.518;9.864;2023-05-02T07:29:46;99240.22;;;11.88;77.13
20710;BME280;10516;51.518;9.864;2023-05-02T07:32:11;99245.63;;;11.93;76.77
20710;BME280;10516;51.518;9.864;2023-05-02T07:34:36;99251.31;;;11.96;76.71
20710;BME280;10516;51.518;9.864;2023-05-02T07:37:01;99247.28;;;12.16;75.59
20710;BME280;10516;51.518;9.864;2023-05-02T07:39:27;99243.22;;;11.91;77.44
20710;BME280;10516;51.518;9.864;2023-05-02T07:41:52;99245.22;;;12.23;75.72
20710;BME280;10516;51.518;9.864;2023-05-02T07:44:18;99252.25;;;12.07;77.28
20710;BME280;10516;51.518;9.864;2023-05-02T07:46:43;99247.28;;;11.61;79.61
20710;BME280;10516;51.518;9.864;2023-05-02T07:49:08;99249.66;;;11.95;77.89
20710;BME280;10516;51.518;9.864;2023-05-02T07:51:33;99247.91;;;12.23;75.99
20710;BME280;10516;51.518;9.864;2023-05-02T07:53:59;99253.09;;;12.13;77.01
20710;BME280;10516;51.518;9.864;2023-05-02T07:56:25;99254.75;;;12.14;76.92
20710;BME280;10516;51.518;9.864;2023-05-02T07:58:50;99260.56;;;12.32;76.28
20710;BME280;10516;51.518;9.864;2023-05-02T08:01:16;99267.00;;;12.53;75.26
20710;BME280;10516;51.518;9.864;2023-05-02T08:03:41;99265.88;;;12.27;77.67
20710;BME280;10516;51.518;9.864;2023-05-02T08:06:07;99272.84;;;12.28;77.26
20710;BME280;10516;51.518;9.864;2023-05-02T08:08:35;99270.88;;;12.19;77.41
20710;BME280;10516;51.518;9.864;2023-05-02T08:11:01;99271.81;;;12.29;77.42
20710;BME280;10516;51.518;9.864;2023-05-02T08:13:26;99274.31;;;12.19;77.25
20710;BME280;10516;51.518;9.864;2023-05-02T08:15:52;99278.44;;;12.27;76.63
20710;BME280;10516;51.518;9.864;2023-05-02T08:18:22;99286.75;;;12.25;76.67
20710;BME280;10516;51.518;9.864;2023-05-02T08:20:48;99295.91;;;12.13;77.48
20710;BME280;10516;51.518;9.864;2023-05-02T08:23:14;99294.75;;;11.54;80.18
20710;BME280;10516;51.518;9.864;2023-05-02T08:25:40;99292.34;;;11.85;78.53
20710;BME280;10516;51.518;9.864;2023-05-02T08:28:05;99298.91;;;11.61;80.31
20710;BME280;10516;51.518;9.864;2023-05-02T08:30:30;99308.44;;;11.90;79.19
20710;BME280;10516;51.518;9.864;2023-05-02T08:32:55;99323.44;;;11.58;81.52
20710;BME280;10516;51.518;9.864;2023-05-02T08:35:20;99319.66;;;12.26;76.56
20710;BME280;10516;51.518;9.864;2023-05-02T08:37:46;99338.59;;;10.80;83.96
20710;BME280;10516;51.518;9.864;2023-05-02T08:40:11;99338.06;;;10.15;84.15
20710;BME280;10516;51.518;9.864;2023-05-02T08:42:37;99345.97;;;9.45;85.75
20710;BME280;10516;51.518;9.864;2023-05-02T08:45:05;99354.19;;;9.02;88.18
20710;BME280;10516;51.518;9.864;2023-05-02T08:47:32;99355.66;;;8.69;90.01
20710;BME280;10516;51.518;9.864;2023-05-02T08:49:58;99361.56;;;8.71;91.72
20710;BME280;10516;51.518;9.864;2023-05-02T08:52:23;99368.13;;;9.16;90.63
20710;BME280;10516;51.518;9.864;2023-05-02T08:54:49;99362.41;;;8.53;93.32
20710;BME280;10516;51.518;9.864;2023-05-02T08:57:15;99371.91;;;8.61;93.43
20710;BME280;10516;51.518;9.864;2023-05-02T08:59:41;99369.31;;;8.72;93.95
20710;BME280;10516;51.518;9.864;2023-05-02T09:02:11;99372.94;;;8.78;93.48
20710;BME280;10516;51.518;9.864;2023-05-02T09:04:37;99391.06;;;8.51;94.00
20710;BME280;10516;51.518;9.864;2023-05-02T09:07:05;99395.84;;;8.61;95.03
20710;BME280;10516;51.518;9.864;2023-05-02T09:09:30;99403.91;;;9.20;92.40
20710;BME280;10516;51.518;9.864;2023-05-02T09:11:58;99406.28;;;8.62;93.41
20710;BME280;10516;51.518;9.864;2023-05-02T09:14:23;99403.47;;;9.23;93.40
20710;BME280;10516;51.518;9.864;2023-05-02T09:16:48;99415.38;;;8.73;93.99
20710;BME280;10516;51.518;9.864;2023-05-02T09:19:22;99420.41;;;8.45;95.07
20710;BME280;10516;51.518;9.864;2023-05-02T09:21:49;99422.66;;;8.41;94.28
20710;BME280;10516;51.518;9.864;2023-05-02T09:24:15;99425.03;;;8.31;94.41
20710;BME280;10516;51.518;9.864;2023-05-02T09:26:41;99436.34;;;8.20;95.24
20710;BME280;10516;51.518;9.864;2023-05-02T09:29:07;99433.41;;;8.53;94.74
20710;BME280;10516;51.518;9.864;2023-05-02T09:31:33;99426.09;;;8.84;93.80
20710;BME280;10516;51.518;9.864;2023-05-02T09:36:33;99440.19;;;8.24;95.78
20710;BME280;10516;51.518;9.864;2023-05-02T09:39:07;99454.59;;;8.41;94.52
20710;BME280;10516;51.518;9.864;2023-05-02T09:41:38;99450.88;;;8.67;94.05
20710;BME280;10516;51.518;9.864;2023-05-02T09:44:03;99451.31;;;8.64;94.08
20710;BME280;10516;51.518;9.864;2023-05-02T09:46:38;99461.88;;;8.70;93.16
20710;BME280;10516;51.518;9.864;2023-05-02T09:49:04;99464.81;;;8.44;92.98
20710;BME280;10516;51.518;9.864;2023-05-02T09:51:29;99456.47;;;8.59;93.21
20710;BME280;10516;51.518;9.864;2023-05-02T09:53:55;99467.59;;;8.31;92.70
20710;BME280;10516;51.518;9.864;2023-05-02T09:56:20;99467.34;;;8.57;93.69
20710;BME280;10516;51.518;9.864;2023-05-02T09:58:45;99465.28;;;8.35;93.01
20710;BME280;10516;51.518;9.864;2023-05-02T10:01:14;99474.84;;;8.42;92.43
20710;BME280;10516;51.518;9.864;2023-05-02T10:03:40;99479.91;;;9.04;92.23
20710;BME280;10516;51.518;9.864;2023-05-02T10:06:07;99472.09;;;8.73;93.52
20710;BME280;10516;51.518;9.864;2023-05-02T10:08:32;99474.69;;;8.80;93.45
20710;BME280;10516;51.518;9.864;2023-05-02T10:10:58;99472.66;;;8.93;93.91
20710;BME280;10516;51.518;9.864;2023-05-02T10:13:25;99474.88;;;8.60;90.33
20710;BME280;10516;51.518;9.864;2023-05-02T10:16:01;99472.19;;;8.42;89.57
20710;BME280;10516;51.518;9.864;2023-05-02T10:18:37;99472.31;;;8.29;91.80
20710;BME280;10516;51.518;9.864;2023-05-02T10:21:07;99482.28;;;8.58;91.13
20710;BME280;10516;51.518;9.864;2023-05-02T10:23:32;99484.56;;;9.09;89.97
20710;BME280;10516;51.518;9.864;2023-05-02T10:25:58;99488.66;;;8.75;89.49
20710;BME280;10516;51.518;9.864;2023-05-02T10:28:25;99490.16;;;8.47;89.50
20710;BME280;10516;51.518;9.864;2023-05-02T10:30:50;99493.69;;;8.41;89.67
20710;BME280;10516;51.518;9.864;2023-05-02T10:33:16;99493.25;;;8.86;90.13
20710;BME280;10516;51.518;9.864;2023-05-02T10:35:43;99502.81;;;8.69;88.40
20710;BME280;10516;51.518;9.864;2023-05-02T10:38:10;99498.38;;;8.45;89.29
20710;BME280;10516;51.518;9.864;2023-05-02T10:40:37;99506.41;;;8.39;89.10
20710;BME280;10516;51.518;9.864;2023-05-02T10:43:03;99498.63;;;8.37;88.76
20710;BME280;10516;51.518;9.864;2023-05-02T10:45:29;99494.00;;;8.51;88.35
20710;BME280;10516;51.518;9.864;2023-05-02T10:50:51;99505.06;;;8.90;88.52
20710;BME280;10516;51.518;9.864;2023-05-02T10:53:20;99509.63;;;8.65;88.07
20710;BME280;10516;51.518;9.864;2023-05-02T10:56:02;99513.03;;;9.27;87.22
20710;BME280;10516;51.518;9.864;2023-05-02T10:58:31;99515.41;;;8.80;85.62
20710;BME280;10516;51.518;9.864;2023-05-02T11:01:10;99507.97;;;8.46;87.78
20710;BME280;10516;51.518;9.864;2023-05-02T11:06:25;99509.78;;;9.06;88.64
20710;BME280;10516;51.518;9.864;2023-05-02T11:08:51;99516.31;;;8.92;86.99
20710;BME280;10516;51.518;9.864;2023-05-02T11:14:01;99518.06;;;8.98;86.60
20710;BME280;10516;51.518;9.864;2023-05-02T11:16:26;99515.41;;;9.17;84.78
20710;BME280;10516;51.518;9.864;2023-05-02T11:19:12;99524.28;;;8.92;86.90
20710;BME280;10516;51.518;9.864;2023-05-02T11:21:37;99516.91;;;8.94;86.51
20710;BME280;10516;51.518;9.864;2023-05-02T11:26:47;99525.75;;;10.78;80.90
20710;BME280;10516;51.518;9.864;2023-05-02T11:29:17;99525.84;;;10.95;80.08
20710;BME280;10516;51.518;9.864;2023-05-02T11:31:58;99526.75;;;11.12;79.28
20710;BME280;10516;51.518;9.864;2023-05-02T11:34:24;99533.41;;;10.98;78.57
20710;BME280;10516;51.518;9.864;2023-05-02T11:36:49;99531.44;;;10.70;80.02
20710;BME280;10516;51.518;9.864;2023-05-02T11:39:18;99533.03;;;11.06;77.95
20710;BME280;10516;51.518;9.864;2023-05-02T11:41:44;99528.78;;;10.59;78.72
20710;BME280;10516;51.518;9.864;2023-05-02T11:44:12;99533.09;;;11.34;78.71
20710;BME280;10516;51.518;9.864;2023-05-02T11:46:38;99531.00;;;11.76;76.56
20710;BME280;10516;51.518;9.864;2023-05-02T11:49:03;99532.41;;;11.78;76.47
20710;BME280;10516;51.518;9.864;2023-05-02T11:51:29;99534.91;;;10.94;76.92
20710;BME280;10516;51.518;9.864;2023-05-02T11:53:55;99542.34;;;10.69;76.59
20710;BME280;10516;51.518;9.864;2023-05-02T11:56:24;99548.41;;;11.39;76.45
20710;BME280;10516;51.518;9.864;2023-05-02T11:58:56;99547.97;;;11.81;75.79
20710;BME280;10516;51.518;9.864;2023-05-02T12:01:22;99548.94;;;11.12;75.68
20710;BME280;10516;51.518;9.864;2023-05-02T12:03:47;99552.78;;;10.93;75.83
20710;BME280;10516;51.518;9.864;2023-05-02T12:06:14;99556.63;;;10.63;77.76
20710;BME280;10516;51.518;9.864;2023-05-02T12:08:41;99555.97;;;9.96;78.65
20710;BME280;10516;51.518;9.864;2023-05-02T12:11:07;99554.56;;;9.34;79.98
20710;BME280;10516;51.518;9.864;2023-05-02T12:13:33;99556.25;;;9.11;82.46
20710;BME280;10516;51.518;9.864;2023-05-02T12:15:58;99555.13;;;9.00;82.57
20710;BME280;10516;51.518;9.864;2023-05-02T12:18:24;99566.13;;;8.85;82.77
20710;BME280;10516;51.518;9.864;2023-05-02T12:20:51;99572.66;;;9.07;83.17
20710;BME280;10516;51.518;9.864;2023-05-02T12:23:20;99570.69;;;8.78;82.70
20710;BME280;10516;51.518;9.864;2023-05-02T12:25:46;99576.88;;;8.23;84.54
20710;BME280;10516;51.518;9.864;2023-05-02T12:28:12;99576.25;;;8.52;84.94
20710;BME280;10516;51.518;9.864;2023-05-02T12:30:37;99578.38;;;8.68;83.32
20710;BME280;10516;51.518;9.864;2023-05-02T12:33:04;99581.84;;;8.44;84.51
20710;BME280;10516;51.518;9.864;2023-05-02T12:35:30;99580.22;;;8.68;84.36
20710;BME280;10516;51.518;9.864;2023-05-02T12:40:34;99590.66;;;8.45;83.51
20710;BME280;10516;51.518;9.864;2023-05-02T12:43:00;99593.81;;;8.60;82.73
20710;BME280;10516;51.518;9.864;2023-05-02T12:45:28;99592.38;;;8.57;82.92
20710;BME280;10516;51.518;9.864;2023-05-02T12:47:57;99604.31;;;8.48;83.60
20710;BME280;10516;51.518;9.864;2023-05-02T12:50:33;99600.38;;;9.00;82.71
20710;BME280;10516;51.518;9.864;2023-05-02T12:52:59;99610.19;;;9.24;83.13
20710;BME280;10516;51.518;9.864;2023-05-02T12:55:25;99615.69;;;10.13;81.73
20710;BME280;10516;51.518;9.864;2023-05-02T12:58:03;99613.56;;;10.45;78.25
20710;BME280;10516;51.518;9.864;2023-05-02T13:00:29;99617.50;;;10.42;78.62
20710;BME280;10516;51.518;9.864;2023-05-02T13:02:55;99622.56;;;10.21;80.04
20710;BME280;10516;51.518;9.864;2023-05-02T13:05:20;99631.22;;;10.57;78.78
20710;BME280;10516;51.518;9.864;2023-05-02T13:07:46;99627.88;;;10.03;77.98
20710;BME280;10516;51.518;9.864;2023-05-02T13:10:11;99634.47;;;9.34;78.99
20710;BME280;10516;51.518;9.864;2023-05-02T13:12:37;99630.31;;;9.38;78.66
20710;BME280;10516;51.518;9.864;2023-05-02T13:15:03;99623.50;;;9.42;78.34
20710;BME280;10516;51.518;9.864;2023-05-02T13:17:30;99632.50;;;9.05;79.05
20710;BME280;10516;51.518;9.864;2023-05-02T13:19:56;99636.81;;;9.24;78.71
20710;BME280;10516;51.518;9.864;2023-05-02T13:22:21;99630.59;;;9.12;78.56
20710;BME280;10516;51.518;9.864;2023-05-02T13:24:49;99640.19;;;8.39;80.22
20710;BME280;10516;51.518;9.864;2023-05-02T13:27:14;99643.91;;;8.87;80.82
20710;BME280;10516;51.518;9.864;2023-05-02T13:29:42;99644.72;;;9.13;80.18
20710;BME280;10516;51.518;9.864;2023-05-02T13:32:07;99641.06;;;8.64;79.45
20710;BME280;10516;51.518;9.864;2023-05-02T13:34:32;99649.41;;;9.35;80.79
20710;BME280;10516;51.518;9.864;2023-05-02T13:36:58;99653.94;;;8.61;79.94
20710;BME280;10516;51.518;9.864;2023-05-02T13:39:25;99647.66;;;8.55;80.49
20710;BME280;10516;51.518;9.864;2023-05-02T13:41:51;99655.75;;;8.91;79.19
20710;BME280;10516;51.518;9.864;2023-05-02T13:44:16;99657.63;;;8.66;79.44